Skip to main content

NOAA/GLERL Met Station at Michigan City, IN

Previous 3 Hours (2 minute increments)
See also Previous 5 Days (top of hour)
Jump down to Data
Switch to [English][Metric]
Zoom: Click and drag, Pan: shift-click and drag, Unzoom: double-click, Unzoom All





See also 1-day windrose plot


NOAA/GLERL Met Station at Michigan City, IN

Previous 3 Hours (2 minute increments)
See also Previous 5 Days (top of hour only)
Jump up to Graphs
Switch to [English][Metric]
                  Wind  Wind  Wind   Air   Dew   Rel     Sta   PAR
                   Spd   Gst   Dir  Temp    Pt   Hum    Pres uE/m2/
YYYY-MM-DD   CST   kts   kts   deg     F     F     %   in Hg   sec
2020-01-25 07:22   8.4  10.3   207  32.7  31.7  96.1    0.00     0
2020-01-25 07:20   8.9   9.9   204  32.7  31.7  96.1    0.00     0
2020-01-25 07:18   8.2   8.7   204  32.7  31.7  96.1    0.00     0
2020-01-25 07:16   8.7   9.9   203  32.7  31.7  96.1    0.00     0
2020-01-25 07:14   8.6  11.1   203  32.7  31.7  96.1    0.00     0
2020-01-25 07:12   8.7   9.9   203  32.7  31.7  96.1    0.00     0
2020-01-25 07:10   8.6   9.9   200  32.7  31.7  96.1    0.00     0
2020-01-25 07:08   8.6  10.1   200  32.7  31.7  96.1    0.00     0
2020-01-25 07:06   8.9  10.7   204  32.7  31.7  96.1    0.00     0
2020-01-25 07:04   7.6   9.1   200  32.7  31.7  96.1    0.00     0
2020-01-25 07:02   8.4  10.1   203  32.7  31.7  96.1    0.00     0
2020-01-25 07:00   8.0   9.3   202  32.7  31.7  96.1    0.00     0
2020-01-25 06:58   8.4   9.3   202  32.7  31.7  96.0    0.00     0
2020-01-25 06:56   8.4   9.9   201  32.7  31.7  96.0    0.00     0
2020-01-25 06:54   8.7   9.7   199  32.7  31.7  95.9    0.00     0
2020-01-25 06:52   8.4  10.1   197  32.7  31.7  95.8    0.00     0
2020-01-25 06:50   8.4   9.7   199  32.7  31.7  95.8    0.00     0
2020-01-25 06:48   7.4   8.4   201  32.7  31.6  95.7    0.00     0
2020-01-25 06:46   7.6   8.7   197  32.9  31.8  95.7    0.00     0
2020-01-25 06:44   7.8   8.9   198  32.9  31.8  95.6    0.00     0
2020-01-25 06:42   8.9  10.3   201  32.9  31.8  95.6    0.00     0
2020-01-25 06:40   9.7  11.7   200  32.9  31.8  95.5    0.00     0
2020-01-25 06:38   8.4   9.7   198  32.9  31.7  95.4    0.00     0
2020-01-25 06:36   8.2   8.9   198  32.9  31.7  95.3    0.00     0
2020-01-25 06:34   8.7  10.5   200  32.9  31.7  95.2    0.00     0
2020-01-25 06:32   9.9  11.3   198  32.9  31.7  95.2    0.00     0
2020-01-25 06:30   9.1  11.9   197  32.9  31.7  95.1    0.00     0
2020-01-25 06:28   9.5  11.1   199  32.9  31.6  95.0    0.00     0
2020-01-25 06:26   9.3  11.5   198  32.9  31.6  94.9    0.00     0
2020-01-25 06:24   9.9  12.2   198  33.1  31.8  94.8    0.00     0
2020-01-25 06:22   9.5  11.3   200  33.1  31.8  94.8    0.00     0
2020-01-25 06:20   9.7  11.5   198  33.1  31.7  94.7    0.00     0
2020-01-25 06:18   9.7  11.1   199  33.1  31.7  94.6    0.00     0
2020-01-25 06:16   9.7  11.3   198  33.1  31.7  94.6    0.00     0
2020-01-25 06:14  10.1  11.1   201  33.1  31.7  94.6    0.00     0
2020-01-25 06:12   8.6   9.5   201  33.1  31.7  94.6    0.00     0
2020-01-25 06:10   9.1  11.7   199  33.1  31.7  94.6    0.00     0
2020-01-25 06:08  10.3  11.7   200  33.1  31.7  94.6    0.00     0
2020-01-25 06:06  10.5  11.7   196  33.1  31.7  94.7    0.00     0
2020-01-25 06:04   9.5  11.3   198  33.1  31.7  94.7    0.00     0
2020-01-25 06:02   9.3  10.7   197  33.1  31.7  94.7    0.00     0
2020-01-25 06:00  10.3  12.6   197  33.1  31.7  94.7    0.00     0
2020-01-25 05:58   8.9  10.5   200  33.3  31.9  94.7    0.00     0
2020-01-25 05:56   9.5  10.7   202  33.1  31.7  94.6    0.00     0
2020-01-25 05:54   9.7  11.5   201  33.3  31.9  94.6    0.00     0
2020-01-25 05:52   9.5  11.5   202  33.3  31.9  94.6    0.00     0
2020-01-25 05:50   9.7  10.3   202  33.3  31.9  94.7    0.00     0
2020-01-25 05:48  11.3  12.2   203  33.3  31.9  94.7    0.00     0
2020-01-25 05:46  10.7  12.6   203  33.3  31.9  94.7    0.00     0
2020-01-25 05:44   8.9  10.9   201  33.3  31.9  94.6    0.00     0
2020-01-25 05:42   8.9  10.1   201  33.3  31.9  94.5    0.00     0
2020-01-25 05:40   9.5  11.9   198  33.3  31.9  94.5    0.00     0
2020-01-25 05:38   9.3  10.7   198  33.3  31.8  94.4    0.00     0
2020-01-25 05:36   9.5  10.7   200  33.3  31.8  94.4    0.00     0
2020-01-25 05:34  10.5  12.1   201  33.3  31.8  94.3    0.00     0
2020-01-25 05:32  10.1  11.3   199  33.3  31.8  94.3    0.00     0
2020-01-25 05:30  10.1  11.7   198  33.3  31.8  94.3    0.00     0
2020-01-25 05:28   9.9  11.7   200  33.3  31.8  94.3    0.00     0
2020-01-25 05:26  10.3  11.9   200  33.3  31.8  94.2    0.00     0
2020-01-25 05:24   9.7  10.7   197  33.3  31.8  94.2    0.00     0
2020-01-25 05:22   9.1  10.5   200  33.3  31.7  94.0    0.00     0
2020-01-25 05:20   9.1  10.1   197  33.4  31.9  93.9    0.00     0
2020-01-25 05:18   8.9  10.5   196  33.4  31.8  93.8    0.00     0
2020-01-25 05:16  10.5  11.5   196  33.4  31.8  93.8    0.00     0
2020-01-25 05:14  10.3  12.2   196  33.4  31.8  93.8    0.00     0
2020-01-25 05:12   9.7  11.3   197  33.4  31.8  93.8    0.00     0
2020-01-25 05:10  10.3  12.4   199  33.4  31.9  93.9    0.00     0
2020-01-25 05:08   9.3  12.6   196  33.4  31.9  93.9    0.00     0
2020-01-25 05:06   8.7  10.5   194  33.4  31.9  94.0    0.00     0
2020-01-25 05:04   9.7  12.6   196  33.4  31.9  94.0    0.00     0
2020-01-25 05:02   9.5  10.5   195  33.4  31.9  94.1    0.00     0
2020-01-25 05:00   9.9  11.3   196  33.4  31.9  94.1    0.00     0
2020-01-25 04:58  10.3  12.6   199  33.4  31.9  94.1    0.00     0
2020-01-25 04:56   9.9  12.2   199  33.4  31.9  94.1    0.00     0
2020-01-25 04:54   9.7  11.1   194  33.6  32.1  94.1    0.00     0
2020-01-25 04:52  10.9  12.2   195  33.4  31.9  94.0    0.00     0
2020-01-25 04:50   8.2   8.9   195  33.6  32.1  94.0    0.00     0
2020-01-25 04:48  10.5  12.4   193  33.6  32.1  94.0    0.00     0
2020-01-25 04:46   9.9  11.3   195  33.6  32.1  93.9    0.00     0
2020-01-25 04:44   8.7  10.3   196  33.6  32.0  93.8    0.00     0
2020-01-25 04:42  10.3  11.7   199  33.6  32.0  93.8    0.00     0
2020-01-25 04:40  10.1  12.4   192  33.6  32.0  93.8    0.00     0
2020-01-25 04:38  10.9  13.8   189  33.6  32.0  93.7    0.00     0
2020-01-25 04:36  10.3  11.9   192  33.6  32.0  93.7    0.00     0
2020-01-25 04:34  10.1  10.9   192  33.8  32.2  93.6    0.00     0
2020-01-25 04:32  11.3  13.0   193  33.8  32.2  93.6    0.00     0
2020-01-25 04:30  10.7  12.2   190  33.8  32.2  93.6    0.00     0
2020-01-25 04:28  11.3  12.4   192  33.8  32.2  93.6    0.00     0
2020-01-25 04:26   9.7  11.5   198  33.8  32.2  93.7    0.00     0
2020-01-25 04:24  11.3  13.8   190  33.8  32.2  93.8    0.00     0
2020-01-25 04:22  10.1  11.9   193  33.8  32.2  93.8    0.00     0